Time;durP1;ratioP1;P1;durP2;ratioP2;P2;SDS_P1;SDS_P2;PMS_P1;PMS_P2;Temp;Humidity;BMP_temperature;BMP_pressure;BME280_temperature;BME280_humidity;BME280_pressure;Samples;Min_cycle;Max_cycle;Signal;HPM_P1;HPM_P2
2023/04/04 00:00:33;;;;;;;4.20;1.67;;;11.20;99.90;;;;;;5073388;28;20435;-74
2023/04/04 00:02:59;;;;;;;4.68;1.63;;;11.20;99.90;;;;;;5071045;28;20430;-74
2023/04/04 00:05:27;;;;;;;2.78;1.50;;;11.10;99.90;;;;;;5069706;28;20505;-74
2023/04/04 00:07:53;;;;;;;3.33;1.60;;;11.10;99.90;;;;;;5054026;28;20442;-74
2023/04/04 00:10:19;;;;;;;5.28;1.67;;;11.20;99.90;;;;;;5058260;28;20423;-74
2023/04/04 00:12:48;;;;;;;4.50;1.50;;;11.00;99.90;;;;;;5070919;28;20968;-74
2023/04/04 00:15:15;;;;;;;5.57;1.90;;;11.00;99.90;;;;;;5069375;28;20415;-74
2023/04/04 00:17:41;;;;;;;4.53;1.90;;;10.90;99.90;;;;;;5071402;28;20903;-74
2023/04/04 00:20:08;;;;;;;4.35;1.73;;;10.80;99.90;;;;;;5077932;28;20425;-74
2023/04/04 00:22:34;;;;;;;4.03;1.80;;;10.50;99.90;;;;;;5076062;28;20730;-74
2023/04/04 00:25:00;;;;;;;4.25;1.73;;;10.40;99.90;;;;;;5073194;28;20492;-74
2023/04/04 00:27:28;;;;;;;3.30;1.50;;;10.40;99.90;;;;;;5075382;28;20517;-74
2023/04/04 00:29:54;;;;;;;8.40;2.17;;;10.50;99.90;;;;;;5071014;28;20458;-74
2023/04/04 00:32:20;;;;;;;3.92;1.67;;;10.60;99.90;;;;;;5074722;28;20950;-74
2023/04/04 00:34:52;;;;;;;3.88;1.85;;;10.60;99.90;;;;;;5055742;28;20413;-74
2023/04/04 00:37:19;;;;;;;4.50;1.77;;;10.60;99.90;;;;;;5091304;27;20434;-74
2023/04/04 00:39:46;;;;;;;5.07;1.67;;;10.60;99.90;;;;;;5078354;28;20426;-74
2023/04/04 00:42:12;;;;;;;4.63;1.63;;;10.60;99.90;;;;;;5075493;28;20424;-74
2023/04/04 00:44:39;;;;;;;8.57;1.80;;;10.60;99.90;;;;;;5071136;28;20419;-74
2023/04/04 00:47:05;;;;;;;4.88;1.50;;;10.60;99.90;;;;;;5087151;28;20406;-74
2023/04/04 00:49:33;;;;;;;5.35;1.75;;;10.60;99.90;;;;;;5068215;28;20414;-74
2023/04/04 00:52:02;;;;;;;4.65;1.60;;;10.60;99.90;;;;;;5100732;28;20516;-74
2023/04/04 00:54:30;;;;;;;2.55;1.55;;;10.60;99.90;;;;;;5069556;28;20420;-74
2023/04/04 00:56:57;;;;;;;4.00;1.60;;;10.60;99.90;;;;;;5087163;28;20413;-74
2023/04/04 00:59:26;;;;;;;4.25;1.40;;;10.60;99.90;;;;;;5091397;28;20413;-74
2023/04/04 01:01:53;;;;;;;4.07;1.50;;;10.60;99.90;;;;;;5080244;28;20412;-74
2023/04/04 01:04:19;;;;;;;4.85;1.50;;;10.60;99.90;;;;;;5074817;28;20425;-74
2023/04/04 01:06:45;;;;;;;4.10;1.60;;;10.60;99.90;;;;;;5072883;28;20463;-74
2023/04/04 01:09:12;;;;;;;3.88;1.27;;;10.50;99.90;;;;;;5071945;28;20413;-74
2023/04/04 01:11:38;;;;;;;2.53;1.23;;;10.50;99.90;;;;;;5069988;28;24182;-74
2023/04/04 01:14:05;;;;;;;3.13;1.38;;;10.30;99.90;;;;;;5082797;28;20463;-74
2023/04/04 01:16:31;;;;;;;3.20;1.35;;;10.20;99.90;;;;;;5085217;28;20453;-74
2023/04/04 01:18:59;;;;;;;3.58;1.20;;;10.20;99.90;;;;;;5075268;28;20412;-74
2023/04/04 01:21:29;;;;;;;4.20;1.40;;;10.20;99.90;;;;;;5098603;28;20440;-74
2023/04/04 01:24:02;;;;;;;3.28;1.17;;;10.20;99.90;;;;;;5054364;28;20472;-74
2023/04/04 01:26:29;;;;;;;4.87;1.20;;;10.20;99.90;;;;;;5092936;28;20495;-74
2023/04/04 01:28:58;;;;;;;1.83;1.30;;;10.20;99.90;;;;;;5080652;28;20409;-73
2023/04/04 01:31:36;;;;;;;3.20;1.35;;;10.30;99.90;;;;;;5106157;27;20421;-72
2023/04/04 01:35:01;;;;;;;2.92;1.33;;;10.30;99.90;;;;;;5096516;27;20918;-72
2023/04/04 01:38:22;;;;;;;4.68;1.30;;;10.20;99.90;;;;;;5047998;28;20775;-72
2023/04/04 01:40:54;;;;;;;5.45;1.40;;;10.20;99.90;;;;;;5015234;28;20467;-75
2023/04/04 01:43:21;;;;;;;1.80;0.90;;;10.20;99.90;;;;;;5015966;28;20500;-75
2023/04/04 01:45:50;;;;;;;3.13;1.20;;;10.10;99.90;;;;;;5051469;28;20540;-75
2023/04/04 01:48:16;;;;;;;2.72;1.10;;;10.10;99.90;;;;;;5080141;28;20434;-75
2023/04/04 01:50:42;;;;;;;3.60;1.20;;;10.50;99.90;;;;;;5080417;28;20424;-75
2023/04/04 01:53:10;;;;;;;3.95;1.20;;;11.00;99.90;;;;;;5074666;28;20430;-75
2023/04/04 01:55:38;;;;;;;2.83;1.25;;;11.70;99.90;;;;;;5075586;28;20887;-75
2023/04/04 01:58:04;;;;;;;1.92;1.10;;;12.40;99.90;;;;;;5086506;28;20416;-75
2023/04/04 02:00:33;;;;;;;3.67;1.23;;;13.20;99.90;;;;;;5110073;27;20431;-75
2023/04/04 02:03:00;;;;;;;3.05;1.08;;;13.70;99.90;;;;;;5081985;28;20446;-75
2023/04/04 02:05:27;;;;;;;3.10;1.20;;;14.10;99.90;;;;;;5077740;28;20416;-75
2023/04/04 02:07:54;;;;;;;3.55;1.15;;;14.60;99.90;;;;;;5063582;28;20930;-75
2023/04/04 02:10:21;;;;;;;2.90;1.23;;;14.70;99.90;;;;;;5078941;28;20420;-75
2023/04/04 02:12:47;;;;;;;4.20;1.38;;;14.80;99.90;;;;;;5091762;27;21153;-75
2023/04/04 02:15:14;;;;;;;3.63;1.40;;;14.90;99.90;;;;;;5091833;28;20573;-75
2023/04/04 02:17:46;;;;;;;3.65;1.40;;;15.20;99.90;;;;;;5076065;28;20422;-75
2023/04/04 02:20:13;;;;;;;3.22;1.30;;;15.30;99.40;;;;;;5061753;28;20537;-76
2023/04/04 02:22:39;;;;;;;3.47;1.42;;;15.50;99.10;;;;;;5076404;28;21352;-75
2023/04/04 02:25:06;;;;;;;5.43;1.20;;;15.70;98.60;;;;;;5075690;28;20426;-75
2023/04/04 02:27:32;;;;;;;3.63;1.25;;;15.70;98.10;;;;;;5060986;28;20413;-75
2023/04/04 02:29:58;;;;;;;5.63;1.30;;;16.00;97.90;;;;;;5074717;28;20474;-75
2023/04/04 02:32:26;;;;;;;4.45;1.23;;;16.10;97.80;;;;;;5075511;28;20542;-75
2023/04/04 02:34:52;;;;;;;2.85;1.20;;;16.00;97.90;;;;;;5079585;28;20417;-75
2023/04/04 02:37:21;;;;;;;3.47;1.30;;;15.90;98.10;;;;;;5073169;28;20452;-75
2023/04/04 02:39:47;;;;;;;2.83;1.20;;;15.90;97.60;;;;;;5078722;28;20959;-76
2023/04/04 02:42:13;;;;;;;3.67;1.17;;;15.90;97.70;;;;;;5075116;28;20413;-75
2023/04/04 02:44:39;;;;;;;3.17;1.23;;;16.00;97.30;;;;;;5081282;28;20409;-76
2023/04/04 02:47:06;;;;;;;4.75;1.10;;;15.90;97.60;;;;;;5076451;28;20960;-75
2023/04/04 02:49:32;;;;;;;4.90;1.30;;;16.00;97.00;;;;;;5079041;28;21022;-75
2023/04/04 02:51:58;;;;;;;2.95;1.20;;;16.00;97.50;;;;;;5079241;28;20574;-75
2023/04/04 02:54:25;;;;;;;3.17;1.30;;;16.00;97.60;;;;;;5077364;28;20441;-75
2023/04/04 02:56:51;;;;;;;3.13;1.27;;;16.00;96.80;;;;;;5075402;28;20418;-76
2023/04/04 02:59:18;;;;;;;5.28;1.35;;;16.00;97.10;;;;;;5084857;28;20410;-75
2023/04/04 03:01:44;;;;;;;3.08;1.30;;;16.10;96.70;;;;;;5061416;28;20410;-76
2023/04/04 03:04:11;;;;;;;4.57;1.50;;;16.00;97.60;;;;;;5082504;28;21144;-75
2023/04/04 03:06:40;;;;;;;4.53;1.40;;;16.10;96.90;;;;;;5085132;28;20418;-76
2023/04/04 03:09:06;;;;;;;3.22;1.20;;;16.30;96.30;;;;;;5076148;28;21019;-75
2023/04/04 03:11:33;;;;;;;3.70;1.20;;;16.40;96.50;;;;;;5077839;28;20420;-75
2023/04/04 03:13:59;;;;;;;4.80;1.40;;;16.30;97.00;;;;;;5077222;28;20979;-75
2023/04/04 03:16:26;;;;;;;6.35;1.80;;;16.20;97.10;;;;;;5073765;28;20449;-76
2023/04/04 03:18:52;;;;;;;3.33;1.33;;;16.30;96.50;;;;;;5076960;28;20422;-75
2023/04/04 03:21:18;;;;;;;4.25;1.15;;;16.60;97.10;;;;;;5062292;28;20410;-76
2023/04/04 03:23:44;;;;;;;6.18;1.50;;;16.40;97.40;;;;;;5077075;28;20548;-75
2023/04/04 03:26:10;;;;;;;3.72;1.42;;;16.30;97.40;;;;;;5070703;28;20429;-76
2023/04/04 03:28:37;;;;;;;5.07;1.50;;;16.30;97.40;;;;;;5072414;28;20420;-75
2023/04/04 03:31:05;;;;;;;6.10;1.50;;;16.20;97.60;;;;;;5075616;28;20411;-75
2023/04/04 03:33:35;;;;;;;4.03;1.30;;;16.20;98.30;;;;;;5058983;28;20475;-75
2023/04/04 03:36:09;;;;;;;5.68;1.67;;;16.20;98.50;;;;;;5091550;28;20418;-75
2023/04/04 03:38:36;;;;;;;5.07;1.52;;;16.20;99.00;;;;;;5076967;28;20421;-75
2023/04/04 03:41:05;;;;;;;3.85;1.63;;;16.20;98.90;;;;;;5076069;28;20410;-76
2023/04/04 03:43:32;;;;;;;6.63;1.70;;;16.30;98.80;;;;;;5083301;28;20965;-75
2023/04/04 03:46:03;;;;;;;5.90;1.55;;;16.40;98.90;;;;;;5078968;28;20462;-75
2023/04/04 03:48:31;;;;;;;6.13;1.85;;;16.50;99.10;;;;;;5109556;27;20419;-75
2023/04/04 03:51:01;;;;;;;6.03;2.00;;;16.50;99.60;;;;;;5075675;28;21009;-76
2023/04/04 03:53:28;;;;;;;5.57;1.63;;;16.60;99.50;;;;;;5078111;28;20804;-75
2023/04/04 03:55:56;;;;;;;5.57;1.70;;;16.80;99.60;;;;;;5080464;28;20417;-75
2023/04/04 03:58:23;;;;;;;5.38;1.80;;;16.70;99.90;;;;;;5078663;28;20445;-76
2023/04/04 04:00:49;;;;;;;4.72;1.58;;;16.70;99.80;;;;;;5058069;28;20410;-76
2023/04/04 04:03:15;;;;;;;6.13;1.97;;;16.80;99.90;;;;;;5077050;28;20510;-76
2023/04/04 04:05:41;;;;;;;5.57;1.75;;;16.80;99.90;;;;;;5077613;28;20730;-76
2023/04/04 04:08:07;;;;;;;6.93;2.05;;;16.90;99.80;;;;;;5093620;28;20427;-75
2023/04/04 04:10:35;;;;;;;4.75;1.73;;;16.90;99.90;;;;;;5076496;28;20768;-75
2023/04/04 04:13:01;;;;;;;8.63;1.73;;;17.00;99.90;;;;;;5082876;28;20836;-75
2023/04/04 04:15:27;;;;;;;5.00;1.70;;;17.00;99.90;;;;;;5058684;28;20918;-76
2023/04/04 04:17:54;;;;;;;5.95;1.90;;;17.10;99.90;;;;;;5076561;28;20480;-76
2023/04/04 04:20:20;;;;;;;5.50;1.80;;;17.10;99.90;;;;;;5091336;28;20495;-75
2023/04/04 04:22:50;;;;;;;6.00;1.90;;;17.20;99.90;;;;;;5077810;28;20507;-75
2023/04/04 04:25:17;;;;;;;7.07;1.85;;;17.30;99.90;;;;;;5077126;28;20422;-75
2023/04/04 04:27:44;;;;;;;7.32;2.05;;;17.30;99.90;;;;;;5079281;28;20405;-76
2023/04/04 04:30:11;;;;;;;3.83;1.80;;;17.20;99.90;;;;;;5077314;28;20476;-75
2023/04/04 04:32:38;;;;;;;5.40;1.90;;;17.20;99.90;;;;;;5093807;28;20891;-76
2023/04/04 04:35:05;;;;;;;5.60;1.80;;;17.30;99.90;;;;;;5078285;28;20534;-76
2023/04/04 04:37:31;;;;;;;7.45;2.10;;;17.40;99.90;;;;;;5076424;28;20516;-76
2023/04/04 04:40:00;;;;;;;6.77;2.10;;;17.50;99.90;;;;;;5074243;28;20535;-76
2023/04/04 04:42:26;;;;;;;7.15;1.90;;;17.60;99.90;;;;;;5076693;28;20419;-76
2023/04/04 04:44:53;;;;;;;5.63;2.15;;;17.60;99.90;;;;;;5077348;28;20462;-76
2023/04/04 04:47:19;;;;;;;8.30;1.90;;;17.70;99.90;;;;;;5063135;28;20411;-76
2023/04/04 04:49:48;;;;;;;5.90;2.00;;;17.70;99.90;;;;;;5072580;28;20766;-76
2023/04/04 04:52:14;;;;;;;7.90;2.08;;;18.00;99.90;;;;;;5074356;28;20417;-76
2023/04/04 04:54:42;;;;;;;6.07;1.85;;;18.10;99.90;;;;;;5078781;28;21016;-76
2023/04/04 04:57:08;;;;;;;7.35;2.15;;;18.10;99.90;;;;;;5069897;28;20410;-76
2023/04/04 04:59:35;;;;;;;8.30;1.98;;;18.10;99.90;;;;;;5077701;28;20507;-76
2023/04/04 05:02:02;;;;;;;6.50;1.98;;;18.20;99.90;;;;;;5070317;28;20909;-76
2023/04/04 05:04:28;;;;;;;5.27;2.20;;;18.20;99.90;;;;;;5074162;28;20516;-76
2023/04/04 05:06:54;;;;;;;10.07;2.10;;;18.30;99.90;;;;;;5076202;28;20443;-76
2023/04/04 05:09:20;;;;;;;5.90;1.90;;;18.30;99.90;;;;;;5091934;28;20419;-76
2023/04/04 05:11:47;;;;;;;7.13;2.05;;;18.40;99.90;;;;;;5093998;28;20466;-75
2023/04/04 05:14:14;;;;;;;6.38;1.90;;;18.50;99.90;;;;;;5101300;28;20769;-76
2023/04/04 05:16:40;;;;;;;7.30;1.83;;;18.50;99.90;;;;;;5078787;28;20453;-76
2023/04/04 05:19:06;;;;;;;6.07;2.00;;;18.50;99.90;;;;;;5075773;28;20417;-76
2023/04/04 05:21:32;;;;;;;6.78;2.10;;;18.60;99.90;;;;;;5076844;28;20470;-76
2023/04/04 05:23:59;;;;;;;6.10;1.90;;;18.70;99.90;;;;;;5079511;28;20466;-76
2023/04/04 05:26:26;;;;;;;7.35;2.20;;;18.90;99.90;;;;;;5071136;28;20423;-76
2023/04/04 05:28:52;;;;;;;7.57;2.05;;;18.80;99.90;;;;;;5076910;28;20419;-76
2023/04/04 05:31:19;;;;;;;6.30;1.90;;;18.90;99.90;;;;;;5068650;28;20956;-76
2023/04/04 05:33:45;;;;;;;5.10;1.90;;;18.80;99.90;;;;;;5110945;27;20405;-76
2023/04/04 05:36:11;;;;;;;6.15;2.33;;;18.90;99.90;;;;;;5068311;28;20437;-76
2023/04/04 05:38:38;;;;;;;6.00;1.90;;;19.20;99.90;;;;;;5108825;28;20417;-76
2023/04/04 05:41:04;;;;;;;4.38;1.77;;;19.30;99.90;;;;;;5076018;28;20450;-76
2023/04/04 05:43:30;;;;;;;6.72;1.80;;;19.40;99.90;;;;;;5076417;28;20473;-76
2023/04/04 05:45:57;;;;;;;6.38;1.80;;;19.50;99.90;;;;;;5077440;28;20482;-76
2023/04/04 05:48:23;;;;;;;7.00;2.13;;;19.50;99.90;;;;;;5079681;28;20451;-76
2023/04/04 05:50:49;;;;;;;3.85;1.67;;;19.40;99.90;;;;;;5074094;28;20410;-75
2023/04/04 05:53:16;;;;;;;8.70;2.10;;;19.40;99.90;;;;;;5060056;28;20487;-76
2023/04/04 05:55:42;;;;;;;7.60;1.98;;;19.60;99.90;;;;;;5083633;28;20429;-76
2023/04/04 05:58:08;;;;;;;6.38;1.92;;;19.60;99.90;;;;;;5087141;28;20441;-76
2023/04/04 06:00:36;;;;;;;6.70;1.88;;;19.90;99.90;;;;;;5059693;28;21148;-76
2023/04/04 06:03:02;;;;;;;9.55;2.20;;;20.00;99.90;;;;;;5091006;28;21141;-76
2023/04/04 06:05:28;;;;;;;7.57;1.90;;;20.20;99.80;;;;;;5083128;28;20423;-76
2023/04/04 06:07:54;;;;;;;5.70;1.80;;;20.50;99.10;;;;;;5081275;28;20417;-75
2023/04/04 06:10:21;;;;;;;7.47;2.10;;;20.50;99.50;;;;;;5076817;28;20421;-76
2023/04/04 06:12:47;;;;;;;4.35;1.80;;;20.70;99.60;;;;;;5076166;28;20564;-76
2023/04/04 06:15:14;;;;;;;5.30;1.80;;;20.80;98.90;;;;;;5084069;28;20425;-76
2023/04/04 06:17:40;;;;;;;8.30;2.08;;;20.70;98.80;;;;;;5094635;28;20419;-76
2023/04/04 06:20:07;;;;;;;5.53;2.00;;;20.80;98.30;;;;;;5075229;28;20415;-76
2023/04/04 06:22:34;;;;;;;7.90;2.10;;;20.90;98.60;;;;;;5083023;28;20830;-76
2023/04/04 06:25:00;;;;;;;5.78;2.05;;;21.10;98.10;;;;;;5079167;28;20970;-76
2023/04/04 06:27:26;;;;;;;8.23;2.17;;;21.00;98.90;;;;;;5088627;28;20481;-76
2023/04/04 06:29:53;;;;;;;6.53;1.95;;;20.90;99.40;;;;;;5081899;28;20402;-76
2023/04/04 06:32:21;;;;;;;6.63;2.10;;;21.10;99.20;;;;;;5073715;28;20426;-75
2023/04/04 06:34:47;;;;;;;7.15;1.95;;;21.10;98.70;;;;;;5077133;28;20418;-76
2023/04/04 06:37:13;;;;;;;5.60;2.10;;;21.20;97.80;;;;;;5072405;28;20413;-76
2023/04/04 06:39:39;;;;;;;8.02;2.15;;;21.40;97.90;;;;;;5076495;28;21127;-76
2023/04/04 06:42:06;;;;;;;7.70;2.13;;;21.40;97.30;;;;;;5097774;28;20413;-76
2023/04/04 06:44:32;;;;;;;6.82;2.00;;;21.40;98.20;;;;;;5072520;28;20842;-75
2023/04/04 06:46:58;;;;;;;7.85;2.35;;;21.60;97.90;;;;;;5066733;28;21117;-76
2023/04/04 06:49:25;;;;;;;6.38;1.92;;;21.60;97.90;;;;;;5080670;28;21158;-76
2023/04/04 06:51:51;;;;;;;8.23;1.90;;;21.60;97.60;;;;;;5071127;28;20409;-76
2023/04/04 06:54:18;;;;;;;9.77;2.30;;;21.70;98.70;;;;;;5075512;28;20921;-76
2023/04/04 06:56:44;;;;;;;9.47;2.33;;;21.50;99.60;;;;;;5095476;28;21215;-75
2023/04/04 06:59:11;;;;;;;8.83;2.20;;;21.50;99.30;;;;;;5082863;28;20944;-75
2023/04/04 07:01:38;;;;;;;7.93;2.40;;;21.80;99.30;;;;;;5066746;28;20492;-76
2023/04/04 07:04:04;;;;;;;6.22;2.60;;;21.90;98.60;;;;;;5080185;28;20468;-76
2023/04/04 07:06:30;;;;;;;7.80;2.28;;;21.50;99.90;;;;;;5070336;28;20418;-76
2023/04/04 07:08:56;;;;;;;10.02;2.42;;;21.10;99.90;;;;;;5080171;28;20431;-75
2023/04/04 07:11:23;;;;;;;8.50;2.50;;;20.70;99.90;;;;;;5073384;28;20480;-76
2023/04/04 07:13:49;;;;;;;9.07;2.40;;;20.30;99.90;;;;;;5075608;28;20406;-76
2023/04/04 07:16:15;;;;;;;9.15;2.58;;;20.20;99.90;;;;;;5076351;28;20954;-76
2023/04/04 07:18:44;;;;;;;8.32;2.60;;;20.00;99.90;;;;;;5074441;28;20422;-76
2023/04/04 07:21:10;;;;;;;9.75;2.70;;;19.80;99.90;;;;;;5079080;28;20429;-76
2023/04/04 07:23:36;;;;;;;8.65;2.50;;;20.30;99.90;;;;;;5091130;28;20419;-76
2023/04/04 07:26:03;;;;;;;11.40;2.75;;;20.20;99.90;;;;;;5075043;28;20422;-76
2023/04/04 07:28:30;;;;;;;12.73;2.83;;;20.20;99.90;;;;;;5080796;28;20902;-76
2023/04/04 07:31:00;;;;;;;12.43;3.00;;;20.20;99.90;;;;;;5080533;28;20425;-75
2023/04/04 07:33:27;;;;;;;13.00;3.20;;;19.90;99.90;;;;;;5073674;28;20418;-76
2023/04/04 07:35:53;;;;;;;14.13;3.13;;;19.80;99.90;;;;;;5076376;28;20409;-76
2023/04/04 07:38:20;;;;;;;14.35;3.42;;;19.80;99.90;;;;;;5069592;28;20437;-76
2023/04/04 07:40:49;;;;;;;13.15;3.10;;;19.60;99.90;;;;;;5100926;27;20486;-75
2023/04/04 07:43:15;;;;;;;10.63;2.88;;;19.90;99.90;;;;;;5078893;28;21154;-75
2023/04/04 07:45:41;;;;;;;16.17;3.17;;;20.40;99.90;;;;;;5083581;28;20427;-75
2023/04/04 07:48:08;;;;;;;10.73;2.97;;;20.50;99.90;;;;;;5084300;28;21147;-75
2023/04/04 07:50:34;;;;;;;16.03;2.93;;;20.80;99.90;;;;;;5086104;28;20448;-76
2023/04/04 07:53:01;;;;;;;10.20;2.85;;;21.10;99.90;;;;;;5075855;28;20504;-76
2023/04/04 07:55:28;;;;;;;12.23;3.25;;;21.10;99.90;;;;;;5093805;28;20796;-76
2023/04/04 07:57:54;;;;;;;11.20;3.10;;;20.80;99.90;;;;;;5082423;28;20441;-76
2023/04/04 08:00:25;;;;;;;18.35;3.28;;;20.60;99.90;;;;;;5081003;28;20947;-76
2023/04/04 08:03:00;;;;;;;11.23;3.00;;;21.00;99.90;;;;;;5075823;28;20881;-76
2023/04/04 08:05:29;;;;;;;9.95;2.80;;;21.40;99.90;;;;;;5082956;28;20811;-76
2023/04/04 08:07:57;;;;;;;11.57;3.10;;;21.40;99.90;;;;;;5076952;28;20414;-76
2023/04/04 08:10:23;;;;;;;10.00;2.63;;;21.30;99.90;;;;;;5083117;28;20507;-76
2023/04/04 08:12:50;;;;;;;9.65;2.90;;;21.30;99.90;;;;;;5083111;28;20419;-76
2023/04/04 08:15:17;;;;;;;9.97;2.60;;;21.00;99.90;;;;;;5073895;28;20968;-76
2023/04/04 08:17:47;;;;;;;10.85;3.05;;;21.20;99.90;;;;;;5067290;28;20418;-76
2023/04/04 08:20:14;;;;;;;11.75;2.78;;;21.10;99.90;;;;;;5077079;28;20415;-76
2023/04/04 08:22:41;;;;;;;10.32;2.70;;;21.50;99.90;;;;;;5072863;28;20877;-76
2023/04/04 08:25:12;;;;;;;8.73;2.63;;;21.50;99.90;;;;;;5074934;28;20410;-76
2023/04/04 08:27:43;;;;;;;9.80;2.50;;;21.70;99.90;;;;;;5074161;28;20794;-76
2023/04/04 08:30:13;;;;;;;11.65;2.80;;;22.10;99.90;;;;;;5073090;28;20420;-76
2023/04/04 08:32:43;;;;;;;11.40;2.60;;;22.10;99.90;;;;;;5067640;28;20961;-76
2023/04/04 08:35:11;;;;;;;9.13;2.22;;;22.10;99.90;;;;;;5082953;28;20415;-76
2023/04/04 08:37:38;;;;;;;11.32;2.20;;;22.10;99.90;;;;;;5087038;28;20799;-76
2023/04/04 08:40:06;;;;;;;13.57;2.58;;;22.30;99.90;;;;;;5088232;28;20417;-76
2023/04/04 08:42:35;;;;;;;9.30;2.47;;;22.20;99.90;;;;;;5080769;28;21135;-76
2023/04/04 08:45:03;;;;;;;12.65;2.60;;;21.90;99.90;;;;;;5072306;28;20426;-76
2023/04/04 08:47:34;;;;;;;8.73;2.50;;;22.00;99.80;;;;;;5093830;28;20805;-76
2023/04/04 08:50:07;;;;;;;8.10;2.20;;;22.00;99.90;;;;;;5075906;28;20415;-76
2023/04/04 08:52:34;;;;;;;6.82;2.38;;;22.60;98.10;;;;;;5081538;28;20514;-76
2023/04/04 08:55:04;;;;;;;7.07;1.92;;;22.40;98.70;;;;;;5095228;28;20416;-76
2023/04/04 08:57:32;;;;;;;11.52;2.60;;;22.50;98.10;;;;;;5076923;28;20454;-76
2023/04/04 08:59:59;;;;;;;9.48;2.40;;;22.80;97.30;;;;;;5078927;28;20403;-76
2023/04/04 09:02:43;;;;;;;8.43;2.45;;;22.90;97.30;;;;;;5083490;28;20449;-76
2023/04/04 09:05:12;;;;;;;15.60;2.80;;;22.80;98.90;;;;;;5079977;28;20776;-76
2023/04/04 09:07:39;;;;;;;8.90;2.53;;;22.50;99.90;;;;;;5065251;28;20401;-75
2023/04/04 09:10:12;;;;;;;10.45;2.28;;;22.50;99.90;;;;;;5081387;28;20906;-76
2023/04/04 09:12:44;;;;;;;10.70;2.23;;;22.90;98.80;;;;;;5054077;28;20404;-76
2023/04/04 09:15:11;;;;;;;9.13;2.10;;;23.20;98.00;;;;;;5078681;28;20422;-75
2023/04/04 09:17:37;;;;;;;9.40;2.20;;;23.40;97.80;;;;;;5082913;28;20786;-76
2023/04/04 09:20:40;;;;;;;8.80;2.13;;;23.70;98.80;;;;;;5082184;28;20448;-76
2023/04/04 09:23:11;;;;;;;7.40;2.20;;;23.80;98.10;;;;;;5078265;28;20494;-76
2023/04/04 09:25:55;;;;;;;7.30;2.33;;;23.90;98.60;;;;;;5078180;28;20522;-76
2023/04/04 09:28:22;;;;;;;7.07;2.22;;;24.10;98.60;;;;;;5106664;27;20452;-76
2023/04/04 09:30:52;;;;;;;12.77;2.30;;;24.10;98.60;;;;;;5073880;28;20409;-76
2023/04/04 09:33:22;;;;;;;11.77;2.30;;;24.20;97.50;;;;;;5085574;28;20510;-75
2023/04/04 09:35:54;;;;;;;9.63;2.47;;;24.40;96.80;;;;;;5080273;28;20836;-76
2023/04/04 09:38:27;;;;;;;7.20;2.30;;;24.50;97.80;;;;;;5085819;28;20449;-76
2023/04/04 09:40:54;;;;;;;12.15;2.40;;;24.40;98.70;;;;;;5085848;28;20767;-76
2023/04/04 09:43:25;;;;;;;11.95;2.28;;;24.30;98.20;;;;;;5083177;28;20417;-75
2023/04/04 09:45:53;;;;;;;10.68;2.13;;;24.00;97.20;;;;;;5092747;27;20423;-76
2023/04/04 09:48:31;;;;;;;10.63;2.40;;;24.10;96.00;;;;;;5091518;28;20944;-75
2023/04/04 09:50:58;;;;;;;11.10;2.50;;;24.20;95.90;;;;;;5114501;27;20432;-76
2023/04/04 09:53:25;;;;;;;9.30;2.20;;;24.20;95.90;;;;;;5076334;28;20410;-76
2023/04/04 09:55:54;;;;;;;13.63;2.83;;;24.30;96.40;;;;;;5081444;28;20429;-76
2023/04/04 09:58:28;;;;;;;10.50;2.93;;;24.30;95.20;;;;;;5067397;28;20418;-76
2023/04/04 10:01:07;;;;;;;9.17;2.40;;;24.30;95.50;;;;;;5084978;28;20425;-76
2023/04/04 10:03:36;;;;;;;11.40;2.63;;;24.40;96.50;;;;;;5077193;28;20520;-76
2023/04/04 10:06:06;;;;;;;11.00;2.60;;;24.50;97.00;;;;;;5084256;28;20955;-76
2023/04/04 10:08:33;;;;;;;8.68;2.50;;;24.70;96.50;;;;;;5083318;28;20426;-76
2023/04/04 10:11:05;;;;;;;10.37;2.80;;;25.40;95.00;;;;;;5062177;28;20416;-76
2023/04/04 10:13:39;;;;;;;10.05;2.42;;;25.90;94.90;;;;;;5069735;28;20463;-76
2023/04/04 10:16:07;;;;;;;11.20;2.45;;;26.70;95.60;;;;;;5076719;28;21065;-76
2023/04/04 10:18:35;;;;;;;13.33;3.10;;;26.00;95.30;;;;;;5082250;28;20468;-76
2023/04/04 10:21:07;;;;;;;15.07;2.95;;;25.60;95.40;;;;;;5084286;28;20520;-76
2023/04/04 10:23:35;;;;;;;11.45;3.00;;;25.50;96.30;;;;;;5069102;28;20548;-76
2023/04/04 10:26:01;;;;;;;9.77;2.70;;;25.50;94.60;;;;;;5079336;28;20414;-76
2023/04/04 10:28:28;;;;;;;13.98;3.30;;;25.70;94.90;;;;;;5072349;28;20486;-76
2023/04/04 10:31:13;;;;;;;14.17;2.90;;;25.60;95.20;;;;;;5084237;28;20416;-76
2023/04/04 10:34:50;;;;;;;11.93;3.35;;;25.00;96.20;;;;;;5078970;28;20408;-76
2023/04/04 10:37:26;;;;;;;13.83;3.93;;;24.70;96.00;;;;;;5029914;28;20402;-76
2023/04/04 10:40:15;;;;;;;15.18;4.05;;;24.60;96.30;;;;;;5082344;28;21116;-76
2023/04/04 10:42:46;;;;;;;14.70;4.53;;;24.40;96.00;;;;;;5060466;28;21033;-75
2023/04/04 10:45:15;;;;;;;12.90;5.05;;;24.30;96.80;;;;;;5069526;28;20422;-76
2023/04/04 10:47:44;;;;;;;14.10;4.20;;;24.30;96.40;;;;;;5078920;28;20416;-76
2023/04/04 10:50:12;;;;;;;15.73;4.55;;;24.30;95.10;;;;;;5077137;28;20451;-76
2023/04/04 10:52:42;;;;;;;12.48;4.38;;;24.20;96.00;;;;;;5078395;28;20998;-76
2023/04/04 10:55:12;;;;;;;10.60;3.90;;;24.20;95.70;;;;;;5083620;28;20857;-76
2023/04/04 10:57:46;;;;;;;14.93;4.13;;;24.20;95.10;;;;;;5088509;28;20533;-76
2023/04/04 11:00:19;;;;;;;12.38;3.97;;;24.20;95.80;;;;;;5096770;27;20424;-76
2023/04/04 11:02:58;;;;;;;14.40;3.88;;;24.10;95.70;;;;;;5098341;28;20417;-76
2023/04/04 11:05:40;;;;;;;14.27;3.47;;;24.10;96.00;;;;;;5089017;28;20419;-76
2023/04/04 11:08:15;;;;;;;14.18;4.18;;;23.90;95.70;;;;;;5096189;27;20848;-76
2023/04/04 11:10:44;;;;;;;13.23;3.50;;;23.70;96.80;;;;;;5083230;28;20797;-76
2023/04/04 11:13:36;;;;;;;11.50;3.40;;;23.50;96.90;;;;;;5065313;28;20423;-76
2023/04/04 11:16:15;;;;;;;13.68;3.47;;;23.50;96.50;;;;;;5083947;28;20421;-76
2023/04/04 11:18:41;;;;;;;14.18;3.30;;;23.50;96.10;;;;;;5075258;28;22040;-76
2023/04/04 11:21:17;;;;;;;12.52;3.30;;;23.50;96.40;;;;;;5105356;27;20966;-76
2023/04/04 11:24:01;;;;;;;13.30;3.27;;;23.60;95.80;;;;;;5063749;28;20479;-75
2023/04/04 11:26:29;;;;;;;14.77;3.60;;;23.50;96.50;;;;;;5079716;28;20473;-75
2023/04/04 11:29:03;;;;;;;13.90;3.30;;;23.60;95.20;;;;;;5077046;28;20859;-76
2023/04/04 11:31:44;;;;;;;10.52;2.90;;;23.60;94.40;;;;;;5070663;28;20426;-76
2023/04/04 11:34:31;;;;;;;10.88;3.28;;;23.50;95.20;;;;;;5070820;28;20438;-76
2023/04/04 11:37:00;;;;;;;13.33;3.33;;;23.40;95.50;;;;;;5067262;28;20881;-75
2023/04/04 11:39:29;;;;;;;12.02;3.50;;;23.50;95.70;;;;;;5077402;28;20425;-76
2023/04/04 11:42:09;;;;;;;10.30;3.25;;;23.60;97.20;;;;;;5076980;28;20418;-76
2023/04/04 11:45:04;;;;;;;9.38;3.00;;;23.60;97.20;;;;;;5070260;28;20546;-76
2023/04/04 11:47:30;;;;;;;13.85;3.83;;;23.60;97.90;;;;;;5068780;28;20447;-76
2023/04/04 11:50:07;;;;;;;18.27;4.90;;;23.50;99.60;;;;;;5073293;28;20463;-76
2023/04/04 11:52:34;;;;;;;17.63;4.60;;;23.50;99.90;;;;;;5111724;27;20407;-76
2023/04/04 11:55:01;;;;;;;16.95;5.25;;;23.40;99.90;;;;;;5079557;28;20413;-76
2023/04/04 11:57:27;;;;;;;20.67;5.35;;;23.30;99.90;;;;;;5109053;27;20432;-76
2023/04/04 11:59:53;;;;;;;17.70;5.50;;;23.00;99.90;;;;;;5070536;28;20407;-76
2023/04/04 12:02:26;;;;;;;18.45;5.32;;;22.50;99.90;;;;;;5061441;28;20415;-76
2023/04/04 12:04:52;;;;;;;28.90;6.85;;;22.30;99.90;;;;;;5076137;28;20412;-76
2023/04/04 12:07:19;;;;;;;24.85;6.90;;;22.00;99.90;;;;;;5077066;28;20548;-76
2023/04/04 12:09:47;;;;;;;20.80;6.13;;;21.80;99.90;;;;;;5080509;28;20409;-76
2023/04/04 12:12:16;;;;;;;23.98;6.80;;;21.70;99.90;;;;;;5094626;28;21050;-76
2023/04/04 12:14:44;;;;;;;25.63;6.80;;;21.40;99.90;;;;;;5073578;28;21003;-76
2023/04/04 12:17:11;;;;;;;24.20;6.63;;;21.20;99.90;;;;;;5073778;28;20571;-76
2023/04/04 12:19:39;;;;;;;24.20;6.80;;;21.10;99.90;;;;;;5072792;28;20404;-76
2023/04/04 12:22:07;;;;;;;29.10;7.17;;;20.90;99.90;;;;;;5079095;28;20440;-76
2023/04/04 12:24:37;;;;;;;23.13;6.45;;;20.80;99.90;;;;;;5084838;28;20435;-76
2023/04/04 12:27:05;;;;;;;21.90;6.35;;;20.70;99.90;;;;;;5063978;28;20510;-76
2023/04/04 12:29:37;;;;;;;27.00;7.15;;;20.70;99.90;;;;;;5077405;28;20414;-76
2023/04/04 12:32:05;;;;;;;25.50;6.45;;;20.50;99.90;;;;;;5084975;28;20412;-76
2023/04/04 12:34:34;;;;;;;25.88;6.60;;;20.80;99.90;;;;;;5078940;28;20416;-76
2023/04/04 12:37:02;;;;;;;28.85;7.07;;;20.80;99.90;;;;;;5074289;28;20419;-76
2023/04/04 12:39:30;;;;;;;26.83;7.63;;;20.60;99.90;;;;;;5080751;28;20406;-76
2023/04/04 12:42:01;;;;;;;24.80;6.85;;;20.60;99.90;;;;;;5081801;28;20446;-76
2023/04/04 12:44:32;;;;;;;25.88;6.78;;;20.40;99.90;;;;;;5089163;28;20403;-76
2023/04/04 12:47:02;;;;;;;27.10;6.97;;;20.40;99.90;;;;;;5075560;28;20468;-76
2023/04/04 12:49:39;;;;;;;27.95;7.55;;;20.60;99.90;;;;;;5077436;28;20982;-76
2023/04/04 12:52:07;;;;;;;31.27;7.22;;;20.70;99.90;;;;;;5094663;28;20447;-76